sensor_id;sensor_type;location;lat;lon;timestamp;temperature;humidity
3356;DHT22;1691;52.486;13.374;2023-04-19T00:02:13;7.30;90.70
3356;DHT22;1691;52.486;13.374;2023-04-19T00:04:40;7.30;90.40
3356;DHT22;1691;52.486;13.374;2023-04-19T00:07:07;7.30;90.20
3356;DHT22;1691;52.486;13.374;2023-04-19T00:09:34;7.30;89.90
3356;DHT22;1691;52.486;13.374;2023-04-19T00:12:04;7.20;89.20
3356;DHT22;1691;52.486;13.374;2023-04-19T00:14:33;7.20;88.80
3356;DHT22;1691;52.486;13.374;2023-04-19T00:17:01;7.10;88.60
3356;DHT22;1691;52.486;13.374;2023-04-19T00:19:29;7.10;88.20
3356;DHT22;1691;52.486;13.374;2023-04-19T00:21:58;7.10;87.90
3356;DHT22;1691;52.486;13.374;2023-04-19T00:24:26;7.10;87.70
3356;DHT22;1691;52.486;13.374;2023-04-19T00:26:54;7.10;86.90
3356;DHT22;1691;52.486;13.374;2023-04-19T00:29:23;7.10;86.00
3356;DHT22;1691;52.486;13.374;2023-04-19T00:31:51;7.10;85.80
3356;DHT22;1691;52.486;13.374;2023-04-19T00:34:19;7.20;85.80
3356;DHT22;1691;52.486;13.374;2023-04-19T00:36:47;7.20;85.20
3356;DHT22;1691;52.486;13.374;2023-04-19T00:39:15;7.20;84.50
3356;DHT22;1691;52.486;13.374;2023-04-19T00:41:46;7.30;84.10
3356;DHT22;1691;52.486;13.374;2023-04-19T00:44:14;7.30;83.40
3356;DHT22;1691;52.486;13.374;2023-04-19T00:46:42;7.30;83.00
3356;DHT22;1691;52.486;13.374;2023-04-19T00:49:11;7.30;82.80
3356;DHT22;1691;52.486;13.374;2023-04-19T00:51:39;7.20;82.10
3356;DHT22;1691;52.486;13.374;2023-04-19T00:54:08;7.20;81.70
3356;DHT22;1691;52.486;13.374;2023-04-19T00:56:36;7.10;81.50
3356;DHT22;1691;52.486;13.374;2023-04-19T00:59:04;7.10;81.50
3356;DHT22;1691;52.486;13.374;2023-04-19T01:01:34;7.10;81.30
3356;DHT22;1691;52.486;13.374;2023-04-19T01:04:01;7.00;81.50
3356;DHT22;1691;52.486;13.374;2023-04-19T01:06:31;7.00;81.50
3356;DHT22;1691;52.486;13.374;2023-04-19T01:08:59;7.00;81.10
3356;DHT22;1691;52.486;13.374;2023-04-19T01:11:27;6.90;80.80
3356;DHT22;1691;52.486;13.374;2023-04-19T01:13:55;6.90;80.60
3356;DHT22;1691;52.486;13.374;2023-04-19T01:16:22;6.90;80.80
3356;DHT22;1691;52.486;13.374;2023-04-19T01:18:51;6.90;81.00
3356;DHT22;1691;52.486;13.374;2023-04-19T01:21:18;6.90;80.80
3356;DHT22;1691;52.486;13.374;2023-04-19T01:23:45;6.90;81.00
3356;DHT22;1691;52.486;13.374;2023-04-19T01:26:12;6.80;80.80
3356;DHT22;1691;52.486;13.374;2023-04-19T01:28:39;6.80;80.60
3356;DHT22;1691;52.486;13.374;2023-04-19T01:31:06;6.70;80.60
3356;DHT22;1691;52.486;13.374;2023-04-19T01:33:33;6.60;80.60
3356;DHT22;1691;52.486;13.374;2023-04-19T01:36:00;6.50;80.60
3356;DHT22;1691;52.486;13.374;2023-04-19T01:38:27;6.50;80.80
3356;DHT22;1691;52.486;13.374;2023-04-19T01:40:54;6.40;81.00
3356;DHT22;1691;52.486;13.374;2023-04-19T01:43:22;6.30;81.10
3356;DHT22;1691;52.486;13.374;2023-04-19T01:45:49;6.30;81.70
3356;DHT22;1691;52.486;13.374;2023-04-19T01:48:16;6.20;81.70
3356;DHT22;1691;52.486;13.374;2023-04-19T01:50:43;6.10;81.90
3356;DHT22;1691;52.486;13.374;2023-04-19T01:53:10;6.10;82.10
3356;DHT22;1691;52.486;13.374;2023-04-19T01:55:37;6.10;82.30
3356;DHT22;1691;52.486;13.374;2023-04-19T01:58:05;6.00;82.30
3356;DHT22;1691;52.486;13.374;2023-04-19T02:00:32;6.00;82.40
3356;DHT22;1691;52.486;13.374;2023-04-19T02:02:59;5.90;82.60
3356;DHT22;1691;52.486;13.374;2023-04-19T02:05:27;5.90;82.60
3356;DHT22;1691;52.486;13.374;2023-04-19T02:07:54;5.80;83.00
3356;DHT22;1691;52.486;13.374;2023-04-19T02:10:21;5.80;83.00
3356;DHT22;1691;52.486;13.374;2023-04-19T02:12:48;5.80;83.20
3356;DHT22;1691;52.486;13.374;2023-04-19T02:15:15;5.70;83.40
3356;DHT22;1691;52.486;13.374;2023-04-19T02:17:42;5.70;83.60
3356;DHT22;1691;52.486;13.374;2023-04-19T02:20:09;5.70;83.80
3356;DHT22;1691;52.486;13.374;2023-04-19T02:22:36;5.70;83.90
3356;DHT22;1691;52.486;13.374;2023-04-19T02:25:04;5.60;83.90
3356;DHT22;1691;52.486;13.374;2023-04-19T02:27:31;5.60;84.10
3356;DHT22;1691;52.486;13.374;2023-04-19T02:29:58;5.60;84.30
3356;DHT22;1691;52.486;13.374;2023-04-19T02:32:25;5.60;84.30
3356;DHT22;1691;52.486;13.374;2023-04-19T02:34:52;5.50;84.50
3356;DHT22;1691;52.486;13.374;2023-04-19T02:37:19;5.50;84.70
3356;DHT22;1691;52.486;13.374;2023-04-19T02:39:46;5.50;84.90
3356;DHT22;1691;52.486;13.374;2023-04-19T02:42:13;5.40;85.10
3356;DHT22;1691;52.486;13.374;2023-04-19T02:44:40;5.40;85.40
3356;DHT22;1691;52.486;13.374;2023-04-19T02:47:07;5.40;85.60
3356;DHT22;1691;52.486;13.374;2023-04-19T02:49:34;5.30;85.80
3356;DHT22;1691;52.486;13.374;2023-04-19T02:52:03;5.30;86.00
3356;DHT22;1691;52.486;13.374;2023-04-19T02:54:30;5.30;86.20
3356;DHT22;1691;52.486;13.374;2023-04-19T02:56:58;5.30;86.40
3356;DHT22;1691;52.486;13.374;2023-04-19T02:59:26;5.30;86.50
3356;DHT22;1691;52.486;13.374;2023-04-19T03:01:53;5.20;86.90
3356;DHT22;1691;52.486;13.374;2023-04-19T03:04:20;5.20;87.10
3356;DHT22;1691;52.486;13.374;2023-04-19T03:06:48;5.20;87.30
3356;DHT22;1691;52.486;13.374;2023-04-19T03:09:15;5.10;87.70
3356;DHT22;1691;52.486;13.374;2023-04-19T03:11:42;5.10;87.70
3356;DHT22;1691;52.486;13.374;2023-04-19T03:14:09;5.10;88.00
3356;DHT22;1691;52.486;13.374;2023-04-19T03:16:36;5.10;88.20
3356;DHT22;1691;52.486;13.374;2023-04-19T03:19:03;5.00;88.40
3356;DHT22;1691;52.486;13.374;2023-04-19T03:21:31;5.00;88.60
3356;DHT22;1691;52.486;13.374;2023-04-19T03:23:58;5.00;88.80
3356;DHT22;1691;52.486;13.374;2023-04-19T03:26:25;4.90;89.00
3356;DHT22;1691;52.486;13.374;2023-04-19T03:28:52;4.90;89.20
3356;DHT22;1691;52.486;13.374;2023-04-19T03:31:19;4.90;89.30
3356;DHT22;1691;52.486;13.374;2023-04-19T03:33:47;4.90;89.50
3356;DHT22;1691;52.486;13.374;2023-04-19T03:36:16;4.80;89.90
3356;DHT22;1691;52.486;13.374;2023-04-19T03:38:43;4.80;90.10
3356;DHT22;1691;52.486;13.374;2023-04-19T03:41:21;4.70;90.20
3356;DHT22;1691;52.486;13.374;2023-04-19T03:43:49;4.70;90.30
3356;DHT22;1691;52.486;13.374;2023-04-19T03:46:16;4.70;90.50
3356;DHT22;1691;52.486;13.374;2023-04-19T03:48:43;4.60;90.60
3356;DHT22;1691;52.486;13.374;2023-04-19T03:51:10;4.60;90.80
3356;DHT22;1691;52.486;13.374;2023-04-19T03:53:38;4.60;90.90
3356;DHT22;1691;52.486;13.374;2023-04-19T03:56:05;4.60;91.10
3356;DHT22;1691;52.486;13.374;2023-04-19T03:58:32;4.50;91.20
3356;DHT22;1691;52.486;13.374;2023-04-19T04:00:59;4.50;91.30
3356;DHT22;1691;52.486;13.374;2023-04-19T04:03:29;4.50;91.50
3356;DHT22;1691;52.486;13.374;2023-04-19T04:05:57;4.50;91.70
3356;DHT22;1691;52.486;13.374;2023-04-19T04:08:23;4.50;91.80
3356;DHT22;1691;52.486;13.374;2023-04-19T04:10:53;4.50;91.90
3356;DHT22;1691;52.486;13.374;2023-04-19T04:13:20;4.50;92.10
3356;DHT22;1691;52.486;13.374;2023-04-19T04:15:47;4.50;92.20
3356;DHT22;1691;52.486;13.374;2023-04-19T04:18:14;4.50;92.30
3356;DHT22;1691;52.486;13.374;2023-04-19T04:20:42;4.60;92.40
3356;DHT22;1691;52.486;13.374;2023-04-19T04:23:10;4.50;92.50
3356;DHT22;1691;52.486;13.374;2023-04-19T04:25:37;4.60;92.60
3356;DHT22;1691;52.486;13.374;2023-04-19T04:28:05;4.60;92.80
3356;DHT22;1691;52.486;13.374;2023-04-19T04:30:32;4.60;92.90
3356;DHT22;1691;52.486;13.374;2023-04-19T04:32:59;4.60;93.00
3356;DHT22;1691;52.486;13.374;2023-04-19T04:35:27;4.80;93.50
3356;DHT22;1691;52.486;13.374;2023-04-19T04:37:55;5.20;93.80
3356;DHT22;1691;52.486;13.374;2023-04-19T04:40:22;5.60;94.00
3356;DHT22;1691;52.486;13.374;2023-04-19T04:42:49;6.00;94.00
3356;DHT22;1691;52.486;13.374;2023-04-19T04:45:18;6.50;93.80
3356;DHT22;1691;52.486;13.374;2023-04-19T04:47:45;6.90;93.40
3356;DHT22;1691;52.486;13.374;2023-04-19T04:50:12;7.20;92.90
3356;DHT22;1691;52.486;13.374;2023-04-19T04:52:39;7.60;92.80
3356;DHT22;1691;52.486;13.374;2023-04-19T04:55:07;8.00;92.50
3356;DHT22;1691;52.486;13.374;2023-04-19T04:57:34;8.40;92.20
3356;DHT22;1691;52.486;13.374;2023-04-19T05:00:02;8.80;91.60
3356;DHT22;1691;52.486;13.374;2023-04-19T05:02:31;9.20;91.10
3356;DHT22;1691;52.486;13.374;2023-04-19T05:04:58;9.40;90.30
3356;DHT22;1691;52.486;13.374;2023-04-19T05:07:25;9.70;89.70
3356;DHT22;1691;52.486;13.374;2023-04-19T05:09:52;9.80;88.40
3356;DHT22;1691;52.486;13.374;2023-04-19T05:12:19;10.00;88.00
3356;DHT22;1691;52.486;13.374;2023-04-19T05:14:46;10.30;87.10
3356;DHT22;1691;52.486;13.374;2023-04-19T05:17:13;10.70;86.40
3356;DHT22;1691;52.486;13.374;2023-04-19T05:19:40;11.00;85.10
3356;DHT22;1691;52.486;13.374;2023-04-19T05:22:07;11.30;84.10
3356;DHT22;1691;52.486;13.374;2023-04-19T05:24:34;11.60;82.40
3356;DHT22;1691;52.486;13.374;2023-04-19T05:27:01;11.80;81.10
3356;DHT22;1691;52.486;13.374;2023-04-19T05:29:28;11.90;80.00
3356;DHT22;1691;52.486;13.374;2023-04-19T05:31:56;12.10;79.50
3356;DHT22;1691;52.486;13.374;2023-04-19T05:34:24;12.30;78.70
3356;DHT22;1691;52.486;13.374;2023-04-19T05:36:51;12.50;77.00
3356;DHT22;1691;52.486;13.374;2023-04-19T05:39:18;12.50;76.50
3356;DHT22;1691;52.486;13.374;2023-04-19T05:41:45;12.70;76.10
3356;DHT22;1691;52.486;13.374;2023-04-19T05:44:12;12.90;75.20
3356;DHT22;1691;52.486;13.374;2023-04-19T05:46:39;13.10;74.10
3356;DHT22;1691;52.486;13.374;2023-04-19T05:49:06;13.50;73.30
3356;DHT22;1691;52.486;13.374;2023-04-19T05:51:33;13.60;71.30
3356;DHT22;1691;52.486;13.374;2023-04-19T05:54:00;13.80;70.70
3356;DHT22;1691;52.486;13.374;2023-04-19T05:56:29;13.80;70.10
3356;DHT22;1691;52.486;13.374;2023-04-19T05:58:56;13.90;69.00
3356;DHT22;1691;52.486;13.374;2023-04-19T06:01:23;13.70;67.50
3356;DHT22;1691;52.486;13.374;2023-04-19T06:03:50;13.70;68.30
3356;DHT22;1691;52.486;13.374;2023-04-19T06:06:23;13.80;67.50
3356;DHT22;1691;52.486;13.374;2023-04-19T06:08:50;13.90;66.10
3356;DHT22;1691;52.486;13.374;2023-04-19T06:11:20;14.00;66.60
3356;DHT22;1691;52.486;13.374;2023-04-19T06:14:00;14.10;65.10
3356;DHT22;1691;52.486;13.374;2023-04-19T06:16:31;14.00;64.60
3356;DHT22;1691;52.486;13.374;2023-04-19T06:18:58;14.00;65.50
3356;DHT22;1691;52.486;13.374;2023-04-19T06:21:25;14.30;65.10
3356;DHT22;1691;52.486;13.374;2023-04-19T06:23:52;14.60;63.30
3356;DHT22;1691;52.486;13.374;2023-04-19T06:26:19;14.50;62.10
3356;DHT22;1691;52.486;13.374;2023-04-19T06:28:47;14.50;62.30
3356;DHT22;1691;52.486;13.374;2023-04-19T06:31:14;14.50;61.80
3356;DHT22;1691;52.486;13.374;2023-04-19T06:33:41;14.80;61.80
3356;DHT22;1691;52.486;13.374;2023-04-19T06:36:08;15.20;60.80
3356;DHT22;1691;52.486;13.374;2023-04-19T06:38:36;15.60;60.50
3356;DHT22;1691;52.486;13.374;2023-04-19T06:41:07;16.20;59.60
3356;DHT22;1691;52.486;13.374;2023-04-19T06:43:34;16.50;58.90
3356;DHT22;1691;52.486;13.374;2023-04-19T06:46:02;16.80;57.30
3356;DHT22;1691;52.486;13.374;2023-04-19T06:48:33;16.90;56.90
3356;DHT22;1691;52.486;13.374;2023-04-19T06:51:00;17.00;57.20
3356;DHT22;1691;52.486;13.374;2023-04-19T06:53:27;17.40;56.40
3356;DHT22;1691;52.486;13.374;2023-04-19T06:55:58;17.60;54.90
3356;DHT22;1691;52.486;13.374;2023-04-19T06:58:30;17.70;54.10
3356;DHT22;1691;52.486;13.374;2023-04-19T07:01:02;17.50;53.20
3356;DHT22;1691;52.486;13.374;2023-04-19T07:03:30;17.30;53.00
3356;DHT22;1691;52.486;13.374;2023-04-19T07:05:58;17.30;53.30
3356;DHT22;1691;52.486;13.374;2023-04-19T07:08:25;17.50;53.00
3356;DHT22;1691;52.486;13.374;2023-04-19T07:11:14;17.90;52.50
3356;DHT22;1691;52.486;13.374;2023-04-19T07:13:41;18.30;51.90
3356;DHT22;1691;52.486;13.374;2023-04-19T07:16:08;18.60;50.90
3356;DHT22;1691;52.486;13.374;2023-04-19T07:18:35;19.10;50.90
3356;DHT22;1691;52.486;13.374;2023-04-19T07:21:02;19.40;48.90
3356;DHT22;1691;52.486;13.374;2023-04-19T07:23:29;19.50;47.90
3356;DHT22;1691;52.486;13.374;2023-04-19T07:25:56;19.80;47.30
3356;DHT22;1691;52.486;13.374;2023-04-19T07:28:23;19.90;45.90
3356;DHT22;1691;52.486;13.374;2023-04-19T07:30:50;20.10;45.60
3356;DHT22;1691;52.486;13.374;2023-04-19T07:33:17;20.00;44.70
3356;DHT22;1691;52.486;13.374;2023-04-19T07:35:44;19.80;44.20
3356;DHT22;1691;52.486;13.374;2023-04-19T07:38:12;19.50;44.40
3356;DHT22;1691;52.486;13.374;2023-04-19T07:40:39;19.20;43.30
3356;DHT22;1691;52.486;13.374;2023-04-19T07:43:06;19.10;43.60
3356;DHT22;1691;52.486;13.374;2023-04-19T07:45:34;19.00;43.90
3356;DHT22;1691;52.486;13.374;2023-04-19T07:48:01;19.20;43.60
3356;DHT22;1691;52.486;13.374;2023-04-19T07:50:28;19.60;43.90
3356;DHT22;1691;52.486;13.374;2023-04-19T07:52:55;20.10;42.90
3356;DHT22;1691;52.486;13.374;2023-04-19T07:55:22;20.30;41.80
3356;DHT22;1691;52.486;13.374;2023-04-19T07:57:49;20.20;41.20
3356;DHT22;1691;52.486;13.374;2023-04-19T08:00:17;20.00;40.70
3356;DHT22;1691;52.486;13.374;2023-04-19T08:02:47;20.00;41.00
3356;DHT22;1691;52.486;13.374;2023-04-19T08:05:15;20.10;39.50
3356;DHT22;1691;52.486;13.374;2023-04-19T08:07:44;20.10;39.50
3356;DHT22;1691;52.486;13.374;2023-04-19T08:10:11;20.10;39.50
3356;DHT22;1691;52.486;13.374;2023-04-19T08:12:39;20.40;39.80
3356;DHT22;1691;52.486;13.374;2023-04-19T08:15:29;20.70;39.80
3356;DHT22;1691;52.486;13.374;2023-04-19T08:17:59;20.60;38.50
3356;DHT22;1691;52.486;13.374;2023-04-19T08:20:26;20.50;39.00
3356;DHT22;1691;52.486;13.374;2023-04-19T08:22:53;20.70;39.60
3356;DHT22;1691;52.486;13.374;2023-04-19T08:25:20;21.30;39.30
3356;DHT22;1691;52.486;13.374;2023-04-19T08:27:52;21.30;37.60
3356;DHT22;1691;52.486;13.374;2023-04-19T08:30:19;21.10;37.50
3356;DHT22;1691;52.486;13.374;2023-04-19T08:32:46;20.70;37.80
3356;DHT22;1691;52.486;13.374;2023-04-19T08:35:13;20.50;36.70
3356;DHT22;1691;52.486;13.374;2023-04-19T08:37:40;20.20;36.90
3356;DHT22;1691;52.486;13.374;2023-04-19T08:40:07;20.10;37.90
3356;DHT22;1691;52.486;13.374;2023-04-19T08:42:36;20.10;38.10
3356;DHT22;1691;52.486;13.374;2023-04-19T08:45:04;19.90;38.40
3356;DHT22;1691;52.486;13.374;2023-04-19T08:47:36;20.20;38.40
3356;DHT22;1691;52.486;13.374;2023-04-19T08:50:22;20.30;37.00
3356;DHT22;1691;52.486;13.374;2023-04-19T08:53:01;19.50;35.30
3356;DHT22;1691;52.486;13.374;2023-04-19T08:55:48;18.20;37.00
3356;DHT22;1691;52.486;13.374;2023-04-19T08:58:35;17.40;39.50
3356;DHT22;1691;52.486;13.374;2023-04-19T09:01:22;16.70;40.20
3356;DHT22;1691;52.486;13.374;2023-04-19T09:04:03;16.30;42.10
3356;DHT22;1691;52.486;13.374;2023-04-19T09:06:52;16.30;42.10
3356;DHT22;1691;52.486;13.374;2023-04-19T09:09:20;15.80;41.80
3356;DHT22;1691;52.486;13.374;2023-04-19T09:12:14;15.20;42.90
3356;DHT22;1691;52.486;13.374;2023-04-19T09:14:44;14.70;43.50
3356;DHT22;1691;52.486;13.374;2023-04-19T09:17:17;15.10;44.50
3356;DHT22;1691;52.486;13.374;2023-04-19T09:19:46;16.30;43.90
3356;DHT22;1691;52.486;13.374;2023-04-19T09:22:14;16.90;41.30
3356;DHT22;1691;52.486;13.374;2023-04-19T09:24:41;17.30;41.80
3356;DHT22;1691;52.486;13.374;2023-04-19T09:27:11;18.00;41.20
3356;DHT22;1691;52.486;13.374;2023-04-19T09:29:38;18.40;40.10
3356;DHT22;1691;52.486;13.374;2023-04-19T09:32:05;18.70;38.90
3356;DHT22;1691;52.486;13.374;2023-04-19T09:34:35;18.50;38.40
3356;DHT22;1691;52.486;13.374;2023-04-19T09:37:20;18.30;39.00
3356;DHT22;1691;52.486;13.374;2023-04-19T09:40:24;18.20;38.40
3356;DHT22;1691;52.486;13.374;2023-04-19T09:42:53;17.40;39.00
3356;DHT22;1691;52.486;13.374;2023-04-19T09:45:23;16.80;40.50
3356;DHT22;1691;52.486;13.374;2023-04-19T09:48:03;16.60;41.60
3356;DHT22;1691;52.486;13.374;2023-04-19T09:50:34;16.30;41.80
3356;DHT22;1691;52.486;13.374;2023-04-19T09:53:22;16.10;42.90
3356;DHT22;1691;52.486;13.374;2023-04-19T09:55:50;15.70;42.50
3356;DHT22;1691;52.486;13.374;2023-04-19T09:58:27;15.20;43.20
3356;DHT22;1691;52.486;13.374;2023-04-19T10:01:09;15.60;42.40
3356;DHT22;1691;52.486;13.374;2023-04-19T10:03:44;16.30;42.10
3356;DHT22;1691;52.486;13.374;2023-04-19T10:06:15;17.10;41.20
3356;DHT22;1691;52.486;13.374;2023-04-19T10:08:49;17.90;40.70
3356;DHT22;1691;52.486;13.374;2023-04-19T10:11:19;18.40;39.00
3356;DHT22;1691;52.486;13.374;2023-04-19T10:13:48;18.50;38.70
3356;DHT22;1691;52.486;13.374;2023-04-19T10:16:20;18.80;38.20
3356;DHT22;1691;52.486;13.374;2023-04-19T10:18:48;19.20;37.60
3356;DHT22;1691;52.486;13.374;2023-04-19T10:21:17;19.20;36.20
3356;DHT22;1691;52.486;13.374;2023-04-19T10:23:45;19.10;36.10
3356;DHT22;1691;52.486;13.374;2023-04-19T10:26:13;19.30;36.10
3356;DHT22;1691;52.486;13.374;2023-04-19T10:28:41;19.20;36.10
3356;DHT22;1691;52.486;13.374;2023-04-19T10:31:11;19.20;35.80
3356;DHT22;1691;52.486;13.374;2023-04-19T10:33:40;19.20;36.20
3356;DHT22;1691;52.486;13.374;2023-04-19T10:36:09;19.10;36.10
3356;DHT22;1691;52.486;13.374;2023-04-19T10:38:45;18.80;36.20
3356;DHT22;1691;52.486;13.374;2023-04-19T10:41:15;18.10;37.50
3356;DHT22;1691;52.486;13.374;2023-04-19T10:44:10;17.30;38.70
3356;DHT22;1691;52.486;13.374;2023-04-19T10:46:38;16.50;39.50
3356;DHT22;1691;52.486;13.374;2023-04-19T10:49:06;16.00;40.20
3356;DHT22;1691;52.486;13.374;2023-04-19T10:54:32;16.30;40.70
3356;DHT22;1691;52.486;13.374;2023-04-19T10:57:06;16.40;41.20
3356;DHT22;1691;52.486;13.374;2023-04-19T10:59:35;16.40;40.90
3356;DHT22;1691;52.486;13.374;2023-04-19T11:07:19;16.40;42.10
3356;DHT22;1691;52.486;13.374;2023-04-19T11:09:49;16.00;41.80
3356;DHT22;1691;52.486;13.374;2023-04-19T11:12:19;15.60;42.10
3356;DHT22;1691;52.486;13.374;2023-04-19T11:14:56;15.30;43.20
3356;DHT22;1691;52.486;13.374;2023-04-19T11:17:28;15.00;43.60
3356;DHT22;1691;52.486;13.374;2023-04-19T11:20:02;14.70;44.40
3356;DHT22;1691;52.486;13.374;2023-04-19T11:22:34;14.60;44.90
3356;DHT22;1691;52.486;13.374;2023-04-19T11:27:37;14.80;45.80
3356;DHT22;1691;52.486;13.374;2023-04-19T11:30:13;15.00;45.50
3356;DHT22;1691;52.486;13.374;2023-04-19T11:32:46;15.10;45.30
3356;DHT22;1691;52.486;13.374;2023-04-19T11:35:24;15.10;45.60
3356;DHT22;1691;52.486;13.374;2023-04-19T11:37:55;15.10;45.50
3356;DHT22;1691;52.486;13.374;2023-04-19T11:40:23;15.00;45.30
3356;DHT22;1691;52.486;13.374;2023-04-19T11:43:00;14.80;45.30
3356;DHT22;1691;52.486;13.374;2023-04-19T11:45:31;14.50;45.80
3356;DHT22;1691;52.486;13.374;2023-04-19T11:48:05;14.40;45.90
3356;DHT22;1691;52.486;13.374;2023-04-19T11:50:42;14.60;46.50
3356;DHT22;1691;52.486;13.374;2023-04-19T11:56:06;14.60;46.20
3356;DHT22;1691;52.486;13.374;2023-04-19T11:58:42;14.50;46.70
3356;DHT22;1691;52.486;13.374;2023-04-19T12:01:12;14.40;46.70
3356;DHT22;1691;52.486;13.374;2023-04-19T12:03:48;14.30;46.50
3356;DHT22;1691;52.486;13.374;2023-04-19T12:06:21;14.20;46.10
3356;DHT22;1691;52.486;13.374;2023-04-19T12:08:53;14.30;46.40
3356;DHT22;1691;52.486;13.374;2023-04-19T12:11:44;14.40;46.40
3356;DHT22;1691;52.486;13.374;2023-04-19T12:14:14;14.50;46.50
3356;DHT22;1691;52.486;13.374;2023-04-19T12:16:42;14.60;46.50
3356;DHT22;1691;52.486;13.374;2023-04-19T12:19:12;14.70;46.70
3356;DHT22;1691;52.486;13.374;2023-04-19T12:21:40;14.80;46.50
3356;DHT22;1691;52.486;13.374;2023-04-19T12:24:08;14.90;46.10
3356;DHT22;1691;52.486;13.374;2023-04-19T12:26:36;14.80;46.10
3356;DHT22;1691;52.486;13.374;2023-04-19T12:29:21;14.60;45.90
3356;DHT22;1691;52.486;13.374;2023-04-19T12:31:48;14.40;46.10
3356;DHT22;1691;52.486;13.374;2023-04-19T12:34:15;14.30;46.50
3356;DHT22;1691;52.486;13.374;2023-04-19T12:36:42;14.30;46.50
3356;DHT22;1691;52.486;13.374;2023-04-19T12:39:09;14.30;47.00
3356;DHT22;1691;52.486;13.374;2023-04-19T12:41:36;14.40;47.50
3356;DHT22;1691;52.486;13.374;2023-04-19T12:44:03;14.60;47.60
3356;DHT22;1691;52.486;13.374;2023-04-19T12:46:30;14.80;47.30
3356;DHT22;1691;52.486;13.374;2023-04-19T12:48:57;14.80;46.40
3356;DHT22;1691;52.486;13.374;2023-04-19T12:51:24;14.70;45.80
3356;DHT22;1691;52.486;13.374;2023-04-19T12:53:52;14.60;46.20
3356;DHT22;1691;52.486;13.374;2023-04-19T12:56:19;14.70;46.50
3356;DHT22;1691;52.486;13.374;2023-04-19T12:58:47;14.60;46.40
3356;DHT22;1691;52.486;13.374;2023-04-19T13:01:14;14.40;46.20
3356;DHT22;1691;52.486;13.374;2023-04-19T13:03:41;14.20;46.90
3356;DHT22;1691;52.486;13.374;2023-04-19T13:06:08;14.10;47.20
3356;DHT22;1691;52.486;13.374;2023-04-19T13:08:37;14.10;47.50
3356;DHT22;1691;52.486;13.374;2023-04-19T13:11:12;14.20;47.80
3356;DHT22;1691;52.486;13.374;2023-04-19T13:13:40;14.40;48.10
3356;DHT22;1691;52.486;13.374;2023-04-19T13:16:07;14.60;47.50
3356;DHT22;1691;52.486;13.374;2023-04-19T13:18:34;14.70;46.70
3356;DHT22;1691;52.486;13.374;2023-04-19T13:21:01;14.80;46.20
3356;DHT22;1691;52.486;13.374;2023-04-19T13:23:52;14.80;46.20
3356;DHT22;1691;52.486;13.374;2023-04-19T13:26:19;14.80;46.10
3356;DHT22;1691;52.486;13.374;2023-04-19T13:28:46;14.90;46.70
3356;DHT22;1691;52.486;13.374;2023-04-19T13:31:13;14.90;46.40
3356;DHT22;1691;52.486;13.374;2023-04-19T13:33:40;14.80;45.90
3356;DHT22;1691;52.486;13.374;2023-04-19T13:36:07;14.70;45.30
3356;DHT22;1691;52.486;13.374;2023-04-19T13:38:34;14.60;45.30
3356;DHT22;1691;52.486;13.374;2023-04-19T13:41:02;14.40;44.50
3356;DHT22;1691;52.486;13.374;2023-04-19T13:43:29;14.30;44.50
3356;DHT22;1691;52.486;13.374;2023-04-19T13:45:56;14.30;44.40
3356;DHT22;1691;52.486;13.374;2023-04-19T13:48:23;14.20;44.90
3356;DHT22;1691;52.486;13.374;2023-04-19T13:50:58;14.30;45.00
3356;DHT22;1691;52.486;13.374;2023-04-19T13:53:26;14.20;44.70
3356;DHT22;1691;52.486;13.374;2023-04-19T13:55:55;14.00;45.20
3356;DHT22;1691;52.486;13.374;2023-04-19T13:58:22;13.90;45.30
3356;DHT22;1691;52.486;13.374;2023-04-19T14:00:52;13.70;45.80
3356;DHT22;1691;52.486;13.374;2023-04-19T14:03:21;13.60;46.10
3356;DHT22;1691;52.486;13.374;2023-04-19T14:05:48;13.50;46.50
3356;DHT22;1691;52.486;13.374;2023-04-19T14:08:15;13.40;46.70
3356;DHT22;1691;52.486;13.374;2023-04-19T14:10:42;13.40;47.00
3356;DHT22;1691;52.486;13.374;2023-04-19T14:13:09;13.30;47.00
3356;DHT22;1691;52.486;13.374;2023-04-19T14:15:36;13.20;47.60
3356;DHT22;1691;52.486;13.374;2023-04-19T14:18:03;13.00;49.50
3356;DHT22;1691;52.486;13.374;2023-04-19T14:20:31;12.70;52.20
3356;DHT22;1691;52.486;13.374;2023-04-19T14:22:58;12.30;54.10
3356;DHT22;1691;52.486;13.374;2023-04-19T14:25:26;12.00;55.00
3356;DHT22;1691;52.486;13.374;2023-04-19T14:27:53;11.90;55.90
3356;DHT22;1691;52.486;13.374;2023-04-19T14:30:20;11.90;55.80
3356;DHT22;1691;52.486;13.374;2023-04-19T14:32:47;12.00;55.50
3356;DHT22;1691;52.486;13.374;2023-04-19T14:35:15;12.10;55.00
3356;DHT22;1691;52.486;13.374;2023-04-19T14:37:42;12.30;53.90
3356;DHT22;1691;52.486;13.374;2023-04-19T14:40:09;12.40;53.90
3356;DHT22;1691;52.486;13.374;2023-04-19T14:42:36;12.40;53.80
3356;DHT22;1691;52.486;13.374;2023-04-19T14:45:04;12.40;53.30
3356;DHT22;1691;52.486;13.374;2023-04-19T14:47:35;12.40;53.20
3356;DHT22;1691;52.486;13.374;2023-04-19T14:50:02;12.40;53.30
3356;DHT22;1691;52.486;13.374;2023-04-19T14:52:29;12.40;53.20
3356;DHT22;1691;52.486;13.374;2023-04-19T14:54:57;12.40;53.00
3356;DHT22;1691;52.486;13.374;2023-04-19T14:57:28;12.30;53.50
3356;DHT22;1691;52.486;13.374;2023-04-19T14:59:56;12.30;53.30
3356;DHT22;1691;52.486;13.374;2023-04-19T15:02:24;12.20;53.00
3356;DHT22;1691;52.486;13.374;2023-04-19T15:04:52;12.10;53.20
3356;DHT22;1691;52.486;13.374;2023-04-19T15:07:19;12.00;54.20
3356;DHT22;1691;52.486;13.374;2023-04-19T15:09:47;11.70;56.40
3356;DHT22;1691;52.486;13.374;2023-04-19T15:12:15;11.40;58.70
3356;DHT22;1691;52.486;13.374;2023-04-19T15:14:42;11.10;60.80
3356;DHT22;1691;52.486;13.374;2023-04-19T15:17:09;10.80;63.60
3356;DHT22;1691;52.486;13.374;2023-04-19T15:19:37;10.50;65.70
3356;DHT22;1691;52.486;13.374;2023-04-19T15:22:05;10.30;67.90
3356;DHT22;1691;52.486;13.374;2023-04-19T15:24:33;10.10;69.60
3356;DHT22;1691;52.486;13.374;2023-04-19T15:27:01;9.90;71.50
3356;DHT22;1691;52.486;13.374;2023-04-19T15:29:30;9.60;73.30
3356;DHT22;1691;52.486;13.374;2023-04-19T15:31:57;9.30;75.70
3356;DHT22;1691;52.486;13.374;2023-04-19T15:34:24;8.90;78.70
3356;DHT22;1691;52.486;13.374;2023-04-19T15:36:51;8.50;81.50
3356;DHT22;1691;52.486;13.374;2023-04-19T15:39:18;8.00;84.10
3356;DHT22;1691;52.486;13.374;2023-04-19T15:41:45;7.70;86.70
3356;DHT22;1691;52.486;13.374;2023-04-19T15:44:12;7.40;89.00
3356;DHT22;1691;52.486;13.374;2023-04-19T15:46:39;7.20;90.40
3356;DHT22;1691;52.486;13.374;2023-04-19T15:49:07;7.00;91.10
3356;DHT22;1691;52.486;13.374;2023-04-19T15:51:34;6.90;91.80
3356;DHT22;1691;52.486;13.374;2023-04-19T15:54:01;6.80;92.40
3356;DHT22;1691;52.486;13.374;2023-04-19T15:56:31;6.70;92.90
3356;DHT22;1691;52.486;13.374;2023-04-19T15:58:58;6.60;93.20
3356;DHT22;1691;52.486;13.374;2023-04-19T16:01:25;6.50;93.70
3356;DHT22;1691;52.486;13.374;2023-04-19T16:03:53;6.50;94.20
3356;DHT22;1691;52.486;13.374;2023-04-19T16:06:20;6.40;94.50
3356;DHT22;1691;52.486;13.374;2023-04-19T16:08:49;6.40;94.70
3356;DHT22;1691;52.486;13.374;2023-04-19T16:11:16;6.40;95.00
3356;DHT22;1691;52.486;13.374;2023-04-19T16:13:43;6.30;95.40
3356;DHT22;1691;52.486;13.374;2023-04-19T16:16:10;6.30;95.60
3356;DHT22;1691;52.486;13.374;2023-04-19T16:18:41;6.20;95.90